Terminal Aerodrome Forecast
Issued by NWS Green Bay, WI

Home | Current Version | Previous Version | Text Only | Print | Product List | Glossary Off
Versions: 1 2 3 4 5 6 7 8 9 10 11 12 13 14 15 16 17

000
FTUS43 KGRB 202035 AAA
TAFGRB
TAF AMD
KGRB 202035Z 2021/2118 31010KT P6SM OVC006
     FM210000 29010KT P6SM OVC015
     FM210500 31012KT P6SM BKN020 OVC070
     FM211300 32012KT P6SM BKN025
     FM211600 34014G20KT P6SM BKN035=

USA.gov is the U.S. government's official web portal to all federal, state and local government web resources and services.